createdAt,value
2023-02-25T00:01:08.755Z,53.94
2023-02-25T00:03:36.479Z,54.40
2023-02-25T00:06:04.074Z,54.37
2023-02-25T00:08:31.035Z,54.26
2023-02-25T00:11:05.834Z,54.56
2023-02-25T00:13:32.885Z,54.90
2023-02-25T00:15:59.631Z,55.14
2023-02-25T00:18:31.255Z,55.43
2023-02-25T00:20:58.609Z,55.33
2023-02-25T00:23:25.503Z,55.54
2023-02-25T00:26:00.009Z,55.28
2023-02-25T00:28:26.903Z,55.82
2023-02-25T00:30:53.959Z,55.83
2023-02-25T00:33:20.977Z,56.07
2023-02-25T00:35:50.132Z,56.28
2023-02-25T00:38:18.389Z,56.30
2023-02-25T00:40:45.166Z,56.57
2023-02-25T00:43:12.148Z,56.82
2023-02-25T00:45:40.698Z,56.80
2023-02-25T00:48:07.973Z,56.90
2023-02-25T00:50:35.376Z,56.71
2023-02-25T00:53:02.486Z,57.03
2023-02-25T00:55:33.764Z,57.32
2023-02-25T00:58:01.511Z,57.32
2023-02-25T01:00:29.364Z,57.50
2023-02-25T01:02:58.185Z,57.80
2023-02-25T01:05:25.052Z,57.62
2023-02-25T01:07:52.285Z,57.75
2023-02-25T01:10:19.210Z,57.45
2023-02-25T01:12:46.090Z,57.77
2023-02-25T01:15:13.609Z,57.89
2023-02-25T01:17:40.445Z,58.17
2023-02-25T01:20:11.601Z,58.23
2023-02-25T01:22:41.998Z,58.36
2023-02-25T01:25:13.541Z,58.37
2023-02-25T01:27:40.338Z,58.61
2023-02-25T01:30:07.846Z,58.61
2023-02-25T01:32:34.681Z,58.67
2023-02-25T01:35:01.510Z,58.83
2023-02-25T01:37:28.512Z,58.77
2023-02-25T01:39:55.527Z,58.83
2023-02-25T01:42:22.579Z,59.05
2023-02-25T01:45:17.953Z,59.18
2023-02-25T01:48:12.644Z,59.23
2023-02-25T01:50:43.335Z,59.36
2023-02-25T01:53:10.312Z,59.50
2023-02-25T01:55:38.056Z,59.72
2023-02-25T01:58:04.942Z,60.02
2023-02-25T02:00:32.097Z,60.13
2023-02-25T02:02:59.007Z,60.31
2023-02-25T02:05:28.362Z,60.63
2023-02-25T02:07:55.115Z,60.59
2023-02-25T02:10:21.833Z,60.36
2023-02-25T02:12:48.764Z,60.49
2023-02-25T02:15:15.690Z,60.67
2023-02-25T02:17:57.213Z,60.80
2023-02-25T02:20:31.416Z,60.61
2023-02-25T02:23:08.835Z,60.94
2023-02-25T02:25:54.366Z,60.85
2023-02-25T02:28:32.834Z,60.78
2023-02-25T02:31:27.086Z,60.95
2023-02-25T02:34:06.470Z,61.17
2023-02-25T02:36:39.400Z,61.57
2023-02-25T02:39:24.755Z,61.69
2023-02-25T02:42:38.631Z,61.69
2023-02-25T02:45:29.917Z,61.69
2023-02-25T02:48:02.486Z,61.85
2023-02-25T02:50:40.925Z,61.74
2023-02-25T02:53:11.621Z,61.58
2023-02-25T02:55:51.261Z,61.73
2023-02-25T02:58:27.710Z,61.53
2023-02-25T03:00:59.652Z,61.55
2023-02-25T03:03:41.893Z,61.72
2023-02-25T03:06:12.575Z,61.60
2023-02-25T03:08:45.079Z,61.60
2023-02-25T03:11:12.475Z,61.81
2023-02-25T03:13:39.477Z,61.64
2023-02-25T03:16:07.820Z,61.95
2023-02-25T03:18:39.170Z,62.04
2023-02-25T03:21:10.732Z,61.71
2023-02-25T03:23:37.482Z,61.48
2023-02-25T03:26:12.120Z,61.48
2023-02-25T03:28:39.048Z,61.43
2023-02-25T03:31:30.910Z,61.34
2023-02-25T03:34:08.767Z,61.21
2023-02-25T03:36:39.970Z,61.24
2023-02-25T03:39:15.670Z,60.95
2023-02-25T03:41:44.917Z,60.95
2023-02-25T03:44:15.316Z,61.03
2023-02-25T03:46:43.626Z,60.64
2023-02-25T03:49:12.270Z,60.56
2023-02-25T03:51:40.227Z,60.44
2023-02-25T03:54:07.623Z,60.31
2023-02-25T03:56:44.420Z,60.16
2023-02-25T03:59:11.319Z,60.11
2023-02-25T04:01:38.272Z,60.10
2023-02-25T04:04:05.262Z,60.07
2023-02-25T04:06:32.283Z,60.15
2023-02-25T04:08:59.128Z,60.27
2023-02-25T04:11:25.935Z,59.88
2023-02-25T04:13:52.812Z,60.20
2023-02-25T04:16:19.668Z,60.06
2023-02-25T04:18:46.492Z,60.04
2023-02-25T04:21:28.389Z,60.26
2023-02-25T04:23:55.173Z,60.13
2023-02-25T04:26:22.273Z,60.15
2023-02-25T04:28:49.359Z,60.61
2023-02-25T04:31:16.201Z,60.73
2023-02-25T04:33:44.251Z,60.80
2023-02-25T04:36:27.597Z,61.14
2023-02-25T04:38:54.490Z,61.27
2023-02-25T04:41:21.733Z,61.34
2023-02-25T04:43:48.524Z,61.93
2023-02-25T04:46:15.394Z,62.16
2023-02-25T04:48:42.279Z,62.40
2023-02-25T04:51:09.651Z,62.73
2023-02-25T04:53:36.514Z,62.58
2023-02-25T04:56:04.936Z,62.42
2023-02-25T04:58:32.511Z,62.52
2023-02-25T05:01:00.821Z,62.76
2023-02-25T05:03:28.700Z,62.34
2023-02-25T05:05:55.716Z,62.46
2023-02-25T05:08:22.877Z,62.51
2023-02-25T05:10:50.039Z,62.59
2023-02-25T05:13:17.011Z,62.51
2023-02-25T05:15:43.931Z,62.62
2023-02-25T05:18:10.872Z,62.59
2023-02-25T05:20:46.673Z,62.38
2023-02-25T05:23:13.851Z,62.32
2023-02-25T05:25:43.322Z,62.25
2023-02-25T05:28:11.080Z,62.09
2023-02-25T05:30:38.315Z,62.19
2023-02-25T05:33:05.961Z,62.07
2023-02-25T05:35:32.990Z,62.27
2023-02-25T05:38:00.126Z,62.38
2023-02-25T05:40:27.095Z,62.51
2023-02-25T05:42:53.942Z,62.44
2023-02-25T05:45:21.023Z,62.59
2023-02-25T05:47:48.069Z,62.71
2023-02-25T05:50:14.862Z,62.86
2023-02-25T05:52:42.409Z,62.80
2023-02-25T05:55:09.900Z,62.77
2023-02-25T05:57:37.000Z,62.39
2023-02-25T06:00:06.294Z,62.38
2023-02-25T06:02:33.676Z,62.48
2023-02-25T06:05:00.414Z,62.23
2023-02-25T06:07:31.036Z,62.20
2023-02-25T06:10:01.034Z,62.39
2023-02-25T06:12:32.393Z,62.36
2023-02-25T06:14:59.491Z,62.56
2023-02-25T06:17:26.362Z,62.59
2023-02-25T06:19:53.540Z,62.77
2023-02-25T06:22:20.927Z,62.64
2023-02-25T06:24:47.819Z,62.83
2023-02-25T06:27:14.875Z,62.89
2023-02-25T06:29:41.848Z,62.65
2023-02-25T06:32:10.548Z,62.77
2023-02-25T06:34:38.248Z,62.64
2023-02-25T06:37:05.006Z,62.65
2023-02-25T06:39:31.914Z,62.79
2023-02-25T06:41:58.811Z,62.83
2023-02-25T06:44:27.238Z,62.88
2023-02-25T06:46:55.809Z,62.63
2023-02-25T06:49:23.306Z,62.73
2023-02-25T06:51:50.169Z,62.67
2023-02-25T06:54:17.623Z,62.55
2023-02-25T06:56:44.526Z,62.44
2023-02-25T06:59:11.252Z,62.14
2023-02-25T07:01:38.068Z,62.22
2023-02-25T07:04:05.277Z,62.50
2023-02-25T07:06:32.197Z,62.48
2023-02-25T07:08:58.992Z,62.53
2023-02-25T07:11:25.854Z,62.64
2023-02-25T07:13:52.577Z,62.50
2023-02-25T07:16:19.605Z,62.47
2023-02-25T07:18:46.998Z,62.68
2023-02-25T07:21:13.938Z,62.61
2023-02-25T07:23:41.163Z,62.91
2023-02-25T07:26:09.260Z,62.81
2023-02-25T07:28:36.178Z,62.61
2023-02-25T07:31:04.194Z,62.72
2023-02-25T07:33:31.153Z,62.81
2023-02-25T07:35:58.029Z,62.56
2023-02-25T07:38:25.020Z,62.19
2023-02-25T07:40:51.877Z,62.14
2023-02-25T07:43:18.714Z,62.00
2023-02-25T07:45:45.703Z,61.96
2023-02-25T07:48:13.001Z,61.91
2023-02-25T07:50:39.816Z,62.00
2023-02-25T07:53:06.622Z,61.99
2023-02-25T07:55:33.646Z,62.27
2023-02-25T07:58:00.430Z,62.63
2023-02-25T08:00:28.005Z,62.87
2023-02-25T08:02:55.355Z,63.12
2023-02-25T08:05:24.368Z,63.60
2023-02-25T08:07:51.333Z,63.71
2023-02-25T08:10:18.422Z,63.78
2023-02-25T08:12:45.206Z,64.01
2023-02-25T08:15:12.066Z,64.07
2023-02-25T08:17:38.975Z,64.17
2023-02-25T08:20:06.396Z,64.40
2023-02-25T08:22:33.168Z,64.46
2023-02-25T08:25:00.007Z,64.74
2023-02-25T08:27:26.900Z,64.47
2023-02-25T08:29:53.835Z,64.63
2023-02-25T08:32:20.762Z,64.68
2023-02-25T08:34:48.913Z,64.88
2023-02-25T08:37:16.107Z,65.12
2023-02-25T08:39:43.199Z,65.73
2023-02-25T08:42:11.908Z,66.29
2023-02-25T08:44:38.732Z,66.22
2023-02-25T08:47:05.625Z,66.52
2023-02-25T08:49:32.407Z,66.78
2023-02-25T08:51:59.246Z,67.31
2023-02-25T08:54:26.142Z,67.69
2023-02-25T08:56:55.609Z,68.12
2023-02-25T08:59:22.558Z,68.80
2023-02-25T09:01:50.561Z,68.99
2023-02-25T09:04:19.285Z,69.42
2023-02-25T09:06:48.773Z,69.70
2023-02-25T09:09:16.554Z,70.46
2023-02-25T09:11:43.728Z,71.27
2023-02-25T09:14:10.761Z,71.66
2023-02-25T09:16:37.737Z,72.14
2023-02-25T09:19:04.661Z,72.29
2023-02-25T09:21:31.469Z,72.74
2023-02-25T09:23:59.829Z,73.41
2023-02-25T09:26:26.680Z,73.19
2023-02-25T09:28:53.564Z,73.38
2023-02-25T09:31:20.758Z,73.68
2023-02-25T09:33:47.708Z,73.19
2023-02-25T09:36:16.258Z,73.29
2023-02-25T09:38:43.978Z,73.19
2023-02-25T09:41:25.110Z,72.96
2023-02-25T09:44:01.313Z,72.57
2023-02-25T09:46:28.550Z,72.56
2023-02-25T09:48:57.742Z,72.09
2023-02-25T09:51:28.279Z,72.13
2023-02-25T09:54:01.917Z,71.97
2023-02-25T09:56:28.783Z,72.25
2023-02-25T09:58:57.843Z,72.60
2023-02-25T10:01:42.270Z,72.86
2023-02-25T10:04:12.065Z,72.61
2023-02-25T10:06:44.369Z,72.51
2023-02-25T10:09:15.156Z,72.50
2023-02-25T10:11:59.211Z,71.89
2023-02-25T10:14:38.554Z,71.64
2023-02-25T10:17:25.646Z,71.76
2023-02-25T10:20:20.266Z,71.92
2023-02-25T10:22:52.049Z,71.84
2023-02-25T10:25:24.304Z,71.74
2023-02-25T10:27:52.599Z,71.81
2023-02-25T10:30:23.370Z,71.57
2023-02-25T10:32:50.248Z,71.97
2023-02-25T10:35:29.110Z,71.92
2023-02-25T10:37:56.120Z,71.96
2023-02-25T10:40:24.614Z,72.03
2023-02-25T10:42:54.522Z,72.16
2023-02-25T10:45:23.820Z,72.06
2023-02-25T10:47:56.202Z,72.18
2023-02-25T10:50:42.829Z,72.37
2023-02-25T10:53:16.706Z,72.48
2023-02-25T10:55:43.467Z,72.48
2023-02-25T10:58:44.667Z,72.89
2023-02-25T11:01:11.421Z,73.12
2023-02-25T11:03:44.906Z,73.50
2023-02-25T11:06:20.304Z,73.29
2023-02-25T11:08:47.994Z,73.67
2023-02-25T11:11:19.728Z,73.11
2023-02-25T11:14:00.156Z,72.27
2023-02-25T11:16:27.010Z,72.19
2023-02-25T11:18:58.724Z,72.33
2023-02-25T11:21:43.850Z,72.32
2023-02-25T11:24:37.742Z,73.68
2023-02-25T11:27:06.515Z,74.56
2023-02-25T11:29:34.658Z,72.62
2023-02-25T11:32:08.450Z,71.07
2023-02-25T11:34:35.329Z,70.98
2023-02-25T11:37:43.319Z,70.22
2023-02-25T11:40:32.367Z,69.61
2023-02-25T11:43:05.190Z,69.15
2023-02-25T11:45:37.967Z,68.80
2023-02-25T11:48:05.977Z,68.28
2023-02-25T11:50:54.080Z,68.55
2023-02-25T11:53:48.479Z,69.29
2023-02-25T11:56:48.824Z,69.73
2023-02-25T11:59:39.987Z,70.02
2023-02-25T12:02:15.910Z,70.04
2023-02-25T12:05:13.719Z,70.35
2023-02-25T12:08:12.386Z,70.95
2023-02-25T12:10:56.020Z,69.53
2023-02-25T12:13:31.527Z,68.33
2023-02-25T12:16:23.201Z,66.17
2023-02-25T12:19:14.503Z,65.57
2023-02-25T12:22:13.007Z,65.13
2023-02-25T12:24:54.550Z,65.37
2023-02-25T12:27:59.122Z,65.31
2023-02-25T12:30:47.906Z,65.18
2023-02-25T12:33:17.502Z,65.17
2023-02-25T12:35:44.410Z,64.47
2023-02-25T12:38:31.784Z,64.19
2023-02-25T12:41:47.991Z,64.10
2023-02-25T12:44:22.507Z,64.31
2023-02-25T12:47:10.914Z,64.55
2023-02-25T12:50:08.922Z,64.89
2023-02-25T12:53:10.946Z,65.11
2023-02-25T12:55:46.766Z,65.18
2023-02-25T12:58:44.597Z,65.34
2023-02-25T13:01:22.558Z,65.31
2023-02-25T13:04:09.459Z,65.22
2023-02-25T13:06:58.160Z,65.61
2023-02-25T13:10:15.919Z,65.62
2023-02-25T13:12:58.447Z,65.80
2023-02-25T13:15:46.844Z,65.89
2023-02-25T13:18:37.911Z,65.75
2023-02-25T13:21:04.555Z,65.56
2023-02-25T13:24:09.434Z,65.28
2023-02-25T13:26:51.583Z,64.99
2023-02-25T13:29:43.766Z,65.11
2023-02-25T13:32:14.603Z,64.80
2023-02-25T13:35:07.334Z,64.62
2023-02-25T13:37:38.114Z,64.69
2023-02-25T13:40:14.045Z,64.87
2023-02-25T13:42:49.916Z,64.60
2023-02-25T13:45:31.633Z,64.71
2023-02-25T13:48:21.621Z,64.64
2023-02-25T13:51:22.220Z,64.57
2023-02-25T13:54:30.344Z,64.28
2023-02-25T13:57:32.408Z,64.17
2023-02-25T14:00:26.595Z,64.50
2023-02-25T14:02:59.247Z,64.30
2023-02-25T14:05:37.893Z,63.98
2023-02-25T14:08:10.766Z,63.96
2023-02-25T14:11:09.492Z,64.25
2023-02-25T14:13:42.944Z,64.23
2023-02-25T14:16:23.867Z,64.49
2023-02-25T14:19:29.482Z,64.26
2023-02-25T14:22:30.655Z,64.23
2023-02-25T14:25:03.082Z,64.42
2023-02-25T14:27:42.888Z,64.56
2023-02-25T14:30:12.599Z,64.50
2023-02-25T14:32:49.404Z,64.70
2023-02-25T14:35:47.018Z,64.95
2023-02-25T14:38:15.853Z,64.76
2023-02-25T14:40:44.194Z,64.92
2023-02-25T14:43:33.345Z,64.85
2023-02-25T14:46:00.085Z,64.65
2023-02-25T14:48:51.812Z,64.70
2023-02-25T14:51:30.745Z,64.70
2023-02-25T14:54:09.846Z,64.72
2023-02-25T14:57:04.852Z,64.49
2023-02-25T14:59:49.353Z,64.37
2023-02-25T15:02:52.442Z,64.67
2023-02-25T15:05:38.054Z,64.38
2023-02-25T15:08:23.717Z,65.44
2023-02-25T15:11:12.020Z,66.23
2023-02-25T15:14:06.379Z,66.48
2023-02-25T15:16:51.871Z,67.26
2023-02-25T15:19:44.751Z,67.35
2023-02-25T15:22:14.742Z,67.64
2023-02-25T15:24:42.550Z,68.01
2023-02-25T15:27:31.499Z,68.26
2023-02-25T15:30:02.757Z,68.54
2023-02-25T15:32:31.209Z,68.67
2023-02-25T15:34:59.166Z,69.24
2023-02-25T15:37:36.619Z,69.35
2023-02-25T15:40:16.428Z,69.51
2023-02-25T15:42:54.337Z,70.29
2023-02-25T15:45:40.839Z,70.67
2023-02-25T15:48:07.615Z,71.23
2023-02-25T15:50:43.395Z,71.58
2023-02-25T15:53:21.296Z,72.02
2023-02-25T15:56:03.762Z,72.44
2023-02-25T15:58:30.653Z,72.69
2023-02-25T16:01:06.180Z,73.18
2023-02-25T16:03:35.963Z,73.88
2023-02-25T16:06:22.049Z,73.79
2023-02-25T16:09:00.925Z,74.27
2023-02-25T16:11:42.577Z,74.43
2023-02-25T16:14:17.956Z,74.63
2023-02-25T16:16:48.590Z,75.14
2023-02-25T16:19:17.426Z,75.42
2023-02-25T16:21:49.913Z,75.31
2023-02-25T16:24:17.069Z,74.80
2023-02-25T16:26:46.789Z,74.33
2023-02-25T16:29:19.764Z,74.33
2023-02-25T16:31:56.203Z,74.12
2023-02-25T16:34:30.246Z,73.50
2023-02-25T16:37:13.788Z,73.41
2023-02-25T16:39:40.641Z,73.45
2023-02-25T16:42:14.692Z,73.67
2023-02-25T16:44:42.547Z,73.43
2023-02-25T16:47:33.143Z,73.43
2023-02-25T16:50:02.192Z,73.61
2023-02-25T16:52:31.211Z,73.79
2023-02-25T16:54:59.642Z,73.51
2023-02-25T16:57:26.669Z,73.73
2023-02-25T17:00:20.165Z,73.80
2023-02-25T17:02:51.156Z,73.58
2023-02-25T17:05:24.171Z,74.29
2023-02-25T17:07:59.852Z,74.44
2023-02-25T17:10:31.577Z,74.70
2023-02-25T17:12:58.425Z,74.80
2023-02-25T17:15:30.008Z,74.71
2023-02-25T17:18:02.537Z,74.90
2023-02-25T17:20:29.321Z,74.94
2023-02-25T17:22:57.190Z,75.01
2023-02-25T17:25:27.952Z,75.20
2023-02-25T17:27:54.856Z,75.36
2023-02-25T17:30:42.440Z,75.32
2023-02-25T17:33:22.764Z,75.65
2023-02-25T17:35:52.314Z,75.44
2023-02-25T17:38:21.232Z,75.44
2023-02-25T17:40:48.152Z,75.53
2023-02-25T17:43:20.007Z,75.96
2023-02-25T17:45:50.260Z,75.94
2023-02-25T17:48:25.200Z,76.32
2023-02-25T17:50:53.561Z,76.35
2023-02-25T17:53:35.026Z,76.44
2023-02-25T17:56:09.953Z,76.43
2023-02-25T17:58:37.016Z,76.48
2023-02-25T18:01:05.901Z,76.78
2023-02-25T18:03:45.742Z,76.55
2023-02-25T18:06:31.539Z,76.91
2023-02-25T18:09:00.033Z,76.74
2023-02-25T18:11:33.875Z,77.07
2023-02-25T18:14:02.664Z,76.83
2023-02-25T18:16:40.668Z,77.33
2023-02-25T18:19:36.183Z,77.08
2023-02-25T18:22:03.782Z,77.18
2023-02-25T18:24:34.963Z,76.96
2023-02-25T18:27:07.928Z,77.11
2023-02-25T18:29:34.769Z,77.18
2023-02-25T18:32:01.766Z,77.14
2023-02-25T18:34:28.819Z,77.30
2023-02-25T18:36:55.623Z,77.33
2023-02-25T18:39:22.405Z,77.53
2023-02-25T18:41:49.322Z,77.29
2023-02-25T18:44:16.334Z,77.19
2023-02-25T18:46:43.093Z,77.06
2023-02-25T18:49:09.988Z,77.21
2023-02-25T18:51:36.743Z,77.13
2023-02-25T18:54:03.645Z,77.03
2023-02-25T18:56:30.549Z,76.92
2023-02-25T18:58:58.050Z,76.76
2023-02-25T19:01:28.916Z,76.74
2023-02-25T19:04:00.100Z,76.61
2023-02-25T19:06:32.164Z,76.71
2023-02-25T19:08:58.983Z,76.63
2023-02-25T19:11:29.143Z,76.61
2023-02-25T19:13:56.332Z,76.73
2023-02-25T19:16:23.734Z,76.44
2023-02-25T19:18:50.858Z,76.54
2023-02-25T19:21:19.253Z,76.57
2023-02-25T19:23:46.324Z,76.68
2023-02-25T19:26:13.288Z,76.75
2023-02-25T19:28:40.050Z,76.71
2023-02-25T19:31:07.269Z,76.79
2023-02-25T19:33:35.675Z,76.89
2023-02-25T19:36:03.656Z,76.61
2023-02-25T19:38:30.547Z,76.81
2023-02-25T19:41:02.453Z,76.65
2023-02-25T19:43:30.586Z,76.78
2023-02-25T19:45:57.438Z,76.83
2023-02-25T19:48:24.579Z,77.08
2023-02-25T19:50:51.392Z,76.92
2023-02-25T19:53:18.315Z,76.91
2023-02-25T19:55:45.209Z,77.03
2023-02-25T19:58:12.026Z,77.09
2023-02-25T20:00:40.216Z,76.85
2023-02-25T20:03:07.722Z,76.81
2023-02-25T20:05:35.004Z,76.45
2023-02-25T20:08:02.622Z,76.66
2023-02-25T20:10:29.521Z,76.36
2023-02-25T20:12:58.996Z,76.24
2023-02-25T20:15:25.936Z,76.29
2023-02-25T20:17:55.189Z,76.28
2023-02-25T20:20:23.024Z,76.07
2023-02-25T20:22:49.946Z,75.88
2023-02-25T20:25:16.805Z,75.92
2023-02-25T20:27:43.851Z,76.20
2023-02-25T20:30:15.110Z,75.88
2023-02-25T20:32:43.693Z,76.06
2023-02-25T20:35:16.052Z,76.16
2023-02-25T20:37:48.056Z,76.14
2023-02-25T20:40:14.987Z,76.19
2023-02-25T20:42:41.920Z,76.15
2023-02-25T20:45:13.652Z,76.11
2023-02-25T20:47:40.628Z,76.03
2023-02-25T20:50:08.414Z,76.12
2023-02-25T20:52:35.329Z,76.24
2023-02-25T20:55:02.197Z,76.09
2023-02-25T20:57:29.199Z,76.03
2023-02-25T20:59:55.978Z,75.89
2023-02-25T21:02:22.918Z,75.91
2023-02-25T21:04:50.581Z,76.13
2023-02-25T21:07:17.358Z,75.91
2023-02-25T21:09:44.204Z,75.93
2023-02-25T21:12:11.218Z,75.99
2023-02-25T21:14:38.016Z,75.87
2023-02-25T21:17:09.744Z,75.92
2023-02-25T21:19:38.888Z,75.94
2023-02-25T21:22:06.900Z,75.65
2023-02-25T21:24:34.784Z,75.87
2023-02-25T21:27:01.779Z,75.78
2023-02-25T21:29:28.571Z,75.96
2023-02-25T21:31:55.406Z,75.94
2023-02-25T21:34:22.360Z,75.91
2023-02-25T21:36:49.308Z,75.66
2023-02-25T21:39:16.129Z,75.67
2023-02-25T21:41:44.795Z,75.82
2023-02-25T21:44:12.437Z,75.75
2023-02-25T21:46:39.635Z,75.28
2023-02-25T21:49:06.581Z,75.30
2023-02-25T21:51:33.310Z,75.10
2023-02-25T21:54:00.940Z,75.29
2023-02-25T21:56:28.396Z,75.20
2023-02-25T21:58:56.036Z,75.10
2023-02-25T22:01:28.470Z,75.19
2023-02-25T22:03:55.385Z,75.05
2023-02-25T22:06:25.523Z,74.89
2023-02-25T22:08:52.926Z,74.71
2023-02-25T22:11:25.117Z,74.65
2023-02-25T22:13:52.900Z,74.48
2023-02-25T22:16:20.054Z,74.10
2023-02-25T22:18:46.891Z,73.94
2023-02-25T22:21:16.366Z,73.84
2023-02-25T22:23:43.703Z,73.60
2023-02-25T22:26:15.533Z,73.59
2023-02-25T22:28:42.908Z,73.15
2023-02-25T22:31:11.422Z,73.09
2023-02-25T22:33:38.519Z,73.00
2023-02-25T22:36:05.899Z,72.85
2023-02-25T22:38:37.560Z,72.86
2023-02-25T22:41:05.541Z,72.70
2023-02-25T22:43:33.068Z,72.66
2023-02-25T22:46:10.240Z,72.62
2023-02-25T22:48:38.661Z,72.70
2023-02-25T22:51:06.148Z,72.60
2023-02-25T22:53:33.032Z,72.55
2023-02-25T22:56:01.808Z,72.64
2023-02-25T22:58:28.871Z,72.74
2023-02-25T23:00:55.942Z,72.66
2023-02-25T23:03:22.964Z,72.83
2023-02-25T23:05:50.215Z,73.04
2023-02-25T23:08:17.362Z,73.16
2023-02-25T23:10:44.471Z,73.25
2023-02-25T23:13:11.665Z,73.13
2023-02-25T23:15:39.728Z,73.32
2023-02-25T23:18:08.785Z,73.37
2023-02-25T23:20:37.208Z,73.41
2023-02-25T23:23:05.177Z,73.35
2023-02-25T23:25:32.675Z,73.50
2023-02-25T23:28:00.692Z,73.65
2023-02-25T23:30:27.849Z,73.75
2023-02-25T23:32:54.840Z,73.67
2023-02-25T23:35:21.681Z,73.91
2023-02-25T23:37:48.707Z,73.67
2023-02-25T23:40:16.204Z,74.29
2023-02-25T23:42:43.382Z,74.01
2023-02-25T23:45:12.033Z,74.04
2023-02-25T23:47:41.428Z,73.91
2023-02-25T23:50:15.761Z,74.00
2023-02-25T23:52:43.766Z,74.01
2023-02-25T23:55:11.988Z,74.03
2023-02-25T23:57:38.887Z,73.91
